createdAt,value
2023-05-09T00:01:56.521Z,3.13
2023-05-09T00:04:24.318Z,2.77
2023-05-09T00:06:52.279Z,3.13
2023-05-09T00:09:20.060Z,2.30
2023-05-09T00:11:47.780Z,3.10
2023-05-09T00:14:15.736Z,2.90
2023-05-09T00:16:44.415Z,2.70
2023-05-09T00:19:13.576Z,2.73
2023-05-09T00:21:41.299Z,2.93
2023-05-09T00:24:09.121Z,3.10
2023-05-09T00:26:36.815Z,2.80
2023-05-09T00:29:04.582Z,3.23
2023-05-09T00:31:32.327Z,2.87
2023-05-09T00:34:00.043Z,3.47
2023-05-09T00:36:29.106Z,3.33
2023-05-09T00:38:57.202Z,3.47
2023-05-09T00:41:24.952Z,3.00
2023-05-09T00:43:52.767Z,3.27
2023-05-09T00:46:20.812Z,3.37
2023-05-09T00:48:48.677Z,2.87
2023-05-09T00:51:16.933Z,3.07
2023-05-09T00:53:46.144Z,2.97
2023-05-09T00:56:13.886Z,3.17
2023-05-09T00:58:42.210Z,2.93
2023-05-09T01:01:10.176Z,3.20
2023-05-09T01:03:41.250Z,3.40
2023-05-09T01:06:15.976Z,2.93
2023-05-09T01:38:13.660Z,3.10
2023-05-09T01:40:43.590Z,3.07
2023-05-09T01:43:15.124Z,3.27
2023-05-09T01:45:44.116Z,3.17
2023-05-09T01:48:13.802Z,3.30
2023-05-09T01:50:43.295Z,3.40
2023-05-09T01:53:13.406Z,3.90
2023-05-09T01:55:42.519Z,3.40
2023-05-09T01:58:11.500Z,3.20
2023-05-09T02:00:39.768Z,3.60
2023-05-09T02:03:08.080Z,3.30
2023-05-09T02:05:37.346Z,3.33
2023-05-09T02:08:05.359Z,3.83
2023-05-09T02:10:36.557Z,3.60
2023-05-09T02:13:06.046Z,3.83
2023-05-09T02:15:34.016Z,3.97
2023-05-09T02:18:02.209Z,3.40
2023-05-09T02:20:30.058Z,3.50
2023-05-09T02:22:58.200Z,3.80
2023-05-09T02:25:26.346Z,4.10
2023-05-09T02:27:58.000Z,3.40
2023-05-09T02:30:27.920Z,3.10
2023-05-09T02:33:00.444Z,3.80
2023-05-09T02:35:29.621Z,4.00
2023-05-09T02:37:59.105Z,3.60
2023-05-09T02:40:34.217Z,3.83
2023-05-09T02:43:06.965Z,4.20
2023-05-09T02:45:42.750Z,4.00
2023-05-09T02:48:13.692Z,4.03
2023-05-09T02:50:43.723Z,4.00
2023-05-09T02:53:20.483Z,3.90
2023-05-09T02:55:51.476Z,4.30
2023-05-09T02:58:30.459Z,3.90
2023-05-09T03:01:10.233Z,4.00
2023-05-09T03:03:44.778Z,3.97
2023-05-09T03:06:23.769Z,4.13
2023-05-09T03:09:08.118Z,4.20
2023-05-09T03:11:47.151Z,3.07
2023-05-09T03:14:31.761Z,3.70
2023-05-09T03:17:03.212Z,3.50
2023-05-09T03:19:35.627Z,3.43
2023-05-09T03:22:03.376Z,3.97
2023-05-09T03:24:35.750Z,3.70
2023-05-09T03:27:03.752Z,3.83
2023-05-09T03:29:33.489Z,3.90
2023-05-09T03:32:02.076Z,3.23
2023-05-09T03:34:29.885Z,3.93
2023-05-09T03:36:59.131Z,3.40
2023-05-09T03:39:27.062Z,3.80
2023-05-09T03:41:57.601Z,3.60
2023-05-09T03:44:25.581Z,3.67
2023-05-09T03:46:55.476Z,4.10
2023-05-09T03:49:23.318Z,4.13
2023-05-09T03:51:54.187Z,4.17
2023-05-09T03:54:22.147Z,3.70
2023-05-09T03:56:50.506Z,4.00
2023-05-09T03:59:18.362Z,4.03
2023-05-09T04:01:46.533Z,3.80
2023-05-09T04:04:16.128Z,4.37
2023-05-09T04:06:44.650Z,4.40
2023-05-09T04:09:13.138Z,3.70
2023-05-09T04:11:42.663Z,3.80
2023-05-09T04:14:12.863Z,3.80
2023-05-09T04:16:40.870Z,4.27
2023-05-09T04:19:08.705Z,4.03
2023-05-09T04:21:38.077Z,4.07
2023-05-09T04:24:07.280Z,4.23
2023-05-09T04:26:42.735Z,4.20
2023-05-09T04:29:14.008Z,3.83
2023-05-09T04:31:42.503Z,4.00
2023-05-09T04:34:13.350Z,4.90
2023-05-09T04:36:42.452Z,4.20
2023-05-09T04:39:10.755Z,4.13
2023-05-09T04:41:48.237Z,4.20
2023-05-09T04:44:22.153Z,4.70
2023-05-09T04:47:02.303Z,4.23
2023-05-09T04:49:39.453Z,4.70
2023-05-09T04:52:19.581Z,3.93
2023-05-09T04:54:51.266Z,4.50
2023-05-09T04:57:36.590Z,4.10
2023-05-09T05:00:13.023Z,4.20
2023-05-09T05:02:49.171Z,4.27
2023-05-09T05:05:17.790Z,4.07
2023-05-09T05:07:49.191Z,4.03
2023-05-09T05:10:22.031Z,4.03
2023-05-09T05:12:55.072Z,4.10
2023-05-09T05:15:24.292Z,4.10
2023-05-09T05:17:52.158Z,4.17
2023-05-09T05:20:23.605Z,3.80
2023-05-09T05:22:54.910Z,3.90
2023-05-09T05:25:24.167Z,4.00
2023-05-09T05:27:53.919Z,3.97
2023-05-09T05:30:22.163Z,4.33
2023-05-09T05:32:50.523Z,4.53
2023-05-09T05:35:23.237Z,4.80
2023-05-09T05:37:53.096Z,4.27
2023-05-09T05:40:22.270Z,4.27
2023-05-09T05:42:51.689Z,4.57
2023-05-09T05:45:19.533Z,4.27
2023-05-09T05:47:51.254Z,3.93
2023-05-09T05:50:19.565Z,4.30
2023-05-09T05:52:47.807Z,4.67
2023-05-09T05:55:18.493Z,4.50
2023-05-09T05:57:47.045Z,4.30
2023-05-09T06:00:16.875Z,4.50
2023-05-09T06:02:48.698Z,4.47
2023-05-09T06:05:24.183Z,4.77
2023-05-09T06:07:52.935Z,4.80
2023-05-09T06:10:22.181Z,4.17
2023-05-09T06:12:49.959Z,4.70
2023-05-09T06:15:18.979Z,4.17
2023-05-09T06:17:49.842Z,4.03
2023-05-09T06:20:17.780Z,4.03
2023-05-09T06:22:45.771Z,4.27
2023-05-09T06:25:13.641Z,3.67
2023-05-09T06:27:43.637Z,4.00
2023-05-09T06:30:24.494Z,3.93
2023-05-09T06:32:53.807Z,4.20
2023-05-09T06:35:21.883Z,4.13
2023-05-09T06:37:49.718Z,4.30
2023-05-09T06:40:17.592Z,4.10
2023-05-09T06:42:46.976Z,4.00
2023-05-09T06:45:15.991Z,4.10
2023-05-09T06:47:43.995Z,3.87
2023-05-09T06:50:12.131Z,3.93
2023-05-09T06:52:39.939Z,4.00
2023-05-09T06:55:09.328Z,3.97
2023-05-09T06:57:37.296Z,3.80
2023-05-09T07:00:08.262Z,4.30
2023-05-09T07:02:36.051Z,3.60
2023-05-09T07:05:05.191Z,4.23
2023-05-09T07:07:33.447Z,4.07
2023-05-09T07:10:11.303Z,3.33
2023-05-09T07:12:40.332Z,3.73
2023-05-09T07:15:10.965Z,3.57
2023-05-09T07:17:39.016Z,4.23
2023-05-09T07:20:08.156Z,3.83
2023-05-09T07:22:37.470Z,3.57
2023-05-09T07:25:08.220Z,3.37
2023-05-09T07:27:36.110Z,3.90
2023-05-09T07:30:04.316Z,3.70
2023-05-09T07:32:33.726Z,3.20
2023-05-09T07:35:01.520Z,3.13
2023-05-09T07:37:29.253Z,3.83
2023-05-09T07:39:57.036Z,4.20
2023-05-09T07:42:24.773Z,3.20
2023-05-09T07:44:52.485Z,3.37
2023-05-09T07:47:20.200Z,3.80
2023-05-09T07:49:49.263Z,3.70
2023-05-09T07:52:17.720Z,3.23
2023-05-09T07:54:45.605Z,3.60
2023-05-09T07:57:13.299Z,3.20
2023-05-09T07:59:46.853Z,3.63
2023-05-09T08:02:14.728Z,3.37
2023-05-09T08:04:42.544Z,3.30
2023-05-09T08:07:11.951Z,3.27
2023-05-09T08:09:39.957Z,3.30
2023-05-09T08:12:08.331Z,3.60
2023-05-09T08:14:36.267Z,3.60
2023-05-09T08:17:04.015Z,3.07
2023-05-09T08:19:31.793Z,3.43
2023-05-09T08:22:01.986Z,3.60
2023-05-09T08:24:31.981Z,3.60
2023-05-09T08:27:00.047Z,3.50
2023-05-09T08:29:28.953Z,3.33
2023-05-09T08:31:56.761Z,3.40
2023-05-09T08:34:24.509Z,3.53
2023-05-09T08:36:55.022Z,3.20
2023-05-09T08:39:23.638Z,3.27
2023-05-09T08:41:54.089Z,2.70
2023-05-09T08:44:23.477Z,3.00
2023-05-09T08:46:53.632Z,3.40
2023-05-09T08:49:21.998Z,3.57
2023-05-09T08:51:50.635Z,3.33
2023-05-09T08:54:19.618Z,3.30
2023-05-09T08:56:48.775Z,3.07
2023-05-09T08:59:19.109Z,3.00
2023-05-09T09:01:47.127Z,3.17
2023-05-09T09:04:14.911Z,2.90
2023-05-09T09:06:43.739Z,2.70
2023-05-09T09:09:13.954Z,2.87
2023-05-09T09:11:43.145Z,3.10
2023-05-09T09:14:13.959Z,3.30
2023-05-09T09:16:45.937Z,2.73
2023-05-09T09:19:17.588Z,2.73
2023-05-09T09:21:46.851Z,2.67
2023-05-09T09:24:15.519Z,2.80
2023-05-09T09:26:47.935Z,2.70
2023-05-09T09:29:16.188Z,2.57
2023-05-09T09:31:47.063Z,2.40
2023-05-09T09:34:23.149Z,2.40
2023-05-09T09:36:51.319Z,2.63
2023-05-09T09:39:19.391Z,2.80
2023-05-09T09:41:47.125Z,2.67
2023-05-09T09:44:16.414Z,2.13
2023-05-09T09:46:47.379Z,2.57
2023-05-09T09:49:16.718Z,2.43
2023-05-09T09:51:45.282Z,2.70
2023-05-09T09:54:13.937Z,2.70
2023-05-09T09:56:43.933Z,2.37
2023-05-09T09:59:13.449Z,2.33
2023-05-09T10:01:59.862Z,2.60
2023-05-09T10:04:31.092Z,2.37
2023-05-09T10:07:00.375Z,2.30
2023-05-09T10:09:29.278Z,2.23
2023-05-09T10:11:57.970Z,2.70
2023-05-09T10:14:27.466Z,2.17
2023-05-09T10:16:57.418Z,2.23
2023-05-09T10:19:29.638Z,2.30
2023-05-09T10:21:58.543Z,2.70
2023-05-09T10:24:30.878Z,2.33
2023-05-09T10:27:05.201Z,2.17
2023-05-09T10:29:36.941Z,2.27
2023-05-09T10:32:13.273Z,1.97
2023-05-09T10:34:48.758Z,2.07
2023-05-09T10:37:25.602Z,2.37
2023-05-09T10:39:55.634Z,2.63
2023-05-09T10:42:33.237Z,2.13
2023-05-09T10:45:04.535Z,2.23
2023-05-09T10:47:36.141Z,1.80
2023-05-09T10:50:13.209Z,1.80
2023-05-09T10:53:14.347Z,1.97
2023-05-09T10:55:59.145Z,2.23
2023-05-09T10:58:36.597Z,1.97
2023-05-09T11:01:05.661Z,2.57
2023-05-09T11:03:55.378Z,2.37
2023-05-09T11:06:43.882Z,2.37
2023-05-09T11:09:28.359Z,2.33
2023-05-09T11:11:58.013Z,2.33
2023-05-09T11:14:39.551Z,2.40
2023-05-09T11:17:08.325Z,2.00
2023-05-09T11:19:57.669Z,2.10
2023-05-09T11:22:28.236Z,2.00
2023-05-09T11:25:04.709Z,1.97
2023-05-09T11:27:40.648Z,2.40
2023-05-09T11:30:10.325Z,2.00
2023-05-09T11:32:51.286Z,1.90
2023-05-09T11:35:21.313Z,1.90
2023-05-09T11:37:52.458Z,2.10
2023-05-09T11:40:21.735Z,1.90
2023-05-09T11:42:55.503Z,2.17
2023-05-09T11:45:27.834Z,2.23
2023-05-09T11:47:56.982Z,2.13
2023-05-09T11:50:25.582Z,1.80
2023-05-09T11:52:55.281Z,2.10
2023-05-09T11:55:25.237Z,2.20
2023-05-09T11:57:55.118Z,2.53
2023-05-09T12:00:24.554Z,2.10
2023-05-09T12:02:53.400Z,2.30
2023-05-09T12:05:23.442Z,1.93
2023-05-09T12:07:52.555Z,2.00
2023-05-09T12:10:23.889Z,1.70
2023-05-09T12:12:53.191Z,2.40
2023-05-09T12:15:21.834Z,2.10
2023-05-09T12:18:02.469Z,2.80
2023-05-09T12:20:41.237Z,2.40
2023-05-09T12:23:10.594Z,2.13
2023-05-09T12:25:39.784Z,2.17
2023-05-09T12:28:07.638Z,1.90
2023-05-09T12:30:36.025Z,1.90
2023-05-09T12:33:04.153Z,2.00
2023-05-09T12:35:32.245Z,2.20
2023-05-09T12:38:00.265Z,2.10
2023-05-09T12:40:28.250Z,1.63
2023-05-09T12:43:01.018Z,2.03
2023-05-09T12:45:28.838Z,2.07
2023-05-09T12:47:58.233Z,2.10
2023-05-09T12:50:34.762Z,1.80
2023-05-09T12:53:04.261Z,1.93
2023-05-09T12:55:32.960Z,1.80
2023-05-09T12:58:03.960Z,1.80
2023-05-09T13:00:43.872Z,1.73
2023-05-09T13:03:22.333Z,2.10
2023-05-09T13:05:58.066Z,1.90
2023-05-09T13:08:25.986Z,1.70
2023-05-09T13:11:00.731Z,1.63
2023-05-09T13:13:37.342Z,1.60
2023-05-09T13:16:06.966Z,1.73
2023-05-09T13:18:35.892Z,1.80
2023-05-09T13:21:03.617Z,1.80
2023-05-09T13:23:31.301Z,1.40
2023-05-09T13:25:59.101Z,1.77
2023-05-09T13:28:26.871Z,1.80
2023-05-09T13:30:55.943Z,1.73
2023-05-09T13:33:26.249Z,1.60
2023-05-09T13:35:54.543Z,1.83
2023-05-09T13:38:22.348Z,1.77
2023-05-09T13:40:50.076Z,2.00
2023-05-09T13:43:17.929Z,2.13
2023-05-09T13:45:45.781Z,2.17
2023-05-09T13:48:14.963Z,1.80
2023-05-09T13:50:42.753Z,1.77
2023-05-09T13:53:10.626Z,1.80
2023-05-09T13:55:38.412Z,1.63
2023-05-09T13:58:06.548Z,1.97
2023-05-09T14:00:34.575Z,1.63
2023-05-09T14:03:02.833Z,1.80
2023-05-09T14:05:32.400Z,1.80
2023-05-09T14:08:01.633Z,1.90
2023-05-09T14:10:29.503Z,2.00
2023-05-09T14:12:57.798Z,1.83
2023-05-09T14:15:25.543Z,1.53
2023-05-09T14:17:53.369Z,1.70
2023-05-09T14:20:21.775Z,1.70
2023-05-09T14:22:50.873Z,1.40
2023-05-09T14:25:18.573Z,1.43
2023-05-09T14:27:46.324Z,1.53
2023-05-09T14:30:15.742Z,1.80
2023-05-09T14:32:43.635Z,1.80
2023-05-09T14:35:11.433Z,1.60
2023-05-09T14:37:39.664Z,1.90
2023-05-09T14:40:10.426Z,1.73
2023-05-09T14:42:38.147Z,1.50
2023-05-09T14:45:07.421Z,1.63
2023-05-09T14:47:35.240Z,1.80
2023-05-09T14:50:03.189Z,1.60
2023-05-09T14:52:31.035Z,1.70
2023-05-09T14:54:59.779Z,1.63
2023-05-09T14:57:28.939Z,1.80
2023-05-09T15:00:00.955Z,1.58
2023-05-09T15:02:34.136Z,1.70
2023-05-09T15:05:01.886Z,1.80
2023-05-09T15:07:29.841Z,1.63
2023-05-09T15:09:57.605Z,1.80
2023-05-09T15:12:25.372Z,1.70
2023-05-09T15:14:55.505Z,1.70
2023-05-09T15:17:23.568Z,1.63
2023-05-09T15:19:51.561Z,1.77
2023-05-09T15:22:19.312Z,1.70
2023-05-09T15:24:47.162Z,2.00
2023-05-09T15:27:14.927Z,1.77
2023-05-09T15:29:42.662Z,1.53
2023-05-09T15:32:11.789Z,1.50
2023-05-09T15:34:39.514Z,1.70
2023-05-09T15:37:07.635Z,2.20
2023-05-09T15:39:36.485Z,1.67
2023-05-09T15:42:07.096Z,1.80
2023-05-09T15:44:34.829Z,1.73
2023-05-09T15:47:02.645Z,1.80
2023-05-09T15:49:31.762Z,1.70
2023-05-09T15:51:59.572Z,1.83
2023-05-09T15:54:27.663Z,1.40
2023-05-09T15:56:55.985Z,1.90
2023-05-09T15:59:23.748Z,1.90
2023-05-09T16:01:51.529Z,1.60
2023-05-09T16:04:19.417Z,1.70
2023-05-09T16:06:48.941Z,1.80
2023-05-09T16:09:16.872Z,1.70
2023-05-09T16:11:44.755Z,1.90
2023-05-09T16:14:13.060Z,1.80
2023-05-09T16:16:42.772Z,1.70
2023-05-09T16:19:10.708Z,1.80
2023-05-09T16:21:39.272Z,1.60
2023-05-09T16:24:09.159Z,2.07
2023-05-09T16:26:36.895Z,1.63
2023-05-09T16:29:04.655Z,1.70
2023-05-09T16:31:35.549Z,1.70
2023-05-09T16:34:04.014Z,1.73
2023-05-09T16:36:33.421Z,2.07
2023-05-09T16:39:01.237Z,1.67
2023-05-09T16:41:30.324Z,1.57
2023-05-09T16:43:58.773Z,1.70
2023-05-09T16:46:26.817Z,1.40
2023-05-09T16:48:55.103Z,1.67
2023-05-09T16:51:23.169Z,1.70
2023-05-09T16:53:50.989Z,1.40
2023-05-09T16:56:18.872Z,1.10
2023-05-09T16:58:49.346Z,1.30
2023-05-09T17:01:17.164Z,1.57
2023-05-09T17:03:45.400Z,1.60
2023-05-09T17:06:13.165Z,1.60
2023-05-09T17:08:40.930Z,1.80
2023-05-09T17:11:09.718Z,1.67
2023-05-09T17:13:37.713Z,1.60
2023-05-09T17:16:07.187Z,1.70
2023-05-09T17:18:38.809Z,1.60
2023-05-09T17:21:07.654Z,1.50
2023-05-09T17:23:38.360Z,1.60
2023-05-09T17:26:06.749Z,1.20
2023-05-09T17:28:36.381Z,1.50
2023-05-09T17:31:04.332Z,1.50
2023-05-09T17:33:34.067Z,1.23
2023-05-09T17:36:01.849Z,1.60
2023-05-09T17:38:30.149Z,1.33
2023-05-09T17:40:58.406Z,1.50
2023-05-09T17:43:28.335Z,1.70
2023-05-09T17:45:56.153Z,1.33
2023-05-09T17:48:24.427Z,1.50
2023-05-09T17:50:54.359Z,1.47
2023-05-09T17:53:22.207Z,1.40
2023-05-09T17:55:49.896Z,1.40
2023-05-09T17:58:17.737Z,1.30
2023-05-09T18:00:45.639Z,1.30
2023-05-09T18:03:13.595Z,1.60
2023-05-09T18:05:41.736Z,1.47
2023-05-09T18:08:10.921Z,1.60
2023-05-09T18:10:38.747Z,1.10
2023-05-09T18:13:06.742Z,1.40
2023-05-09T18:15:38.134Z,1.20
2023-05-09T18:18:06.636Z,1.30
2023-05-09T18:20:34.667Z,1.20
2023-05-09T18:23:02.473Z,1.30
2023-05-09T18:25:31.669Z,1.33
2023-05-09T18:27:59.460Z,1.20
2023-05-09T18:30:27.527Z,1.20
2023-05-09T18:33:00.195Z,1.20
2023-05-09T18:35:28.162Z,1.27
2023-05-09T18:37:55.954Z,1.20
2023-05-09T18:40:23.810Z,1.40
2023-05-09T18:42:52.905Z,1.17
2023-05-09T18:45:20.665Z,1.00
2023-05-09T18:47:48.541Z,1.10
2023-05-09T18:50:18.484Z,1.20
2023-05-09T18:52:46.488Z,1.40
2023-05-09T18:55:14.929Z,1.50
2023-05-09T18:57:42.669Z,1.43
2023-05-09T19:00:13.743Z,1.60
2023-05-09T19:02:41.800Z,1.77
2023-05-09T19:05:10.888Z,1.30
2023-05-09T19:07:39.695Z,1.60
2023-05-09T19:10:09.348Z,1.30
2023-05-09T19:12:37.494Z,1.33
2023-05-09T19:15:06.552Z,1.40
2023-05-09T19:17:35.782Z,1.40
2023-05-09T19:20:04.019Z,1.40
2023-05-09T19:22:32.180Z,1.53
2023-05-09T19:25:00.103Z,1.57
2023-05-09T19:27:27.916Z,1.63
2023-05-09T19:29:55.619Z,1.43
2023-05-09T19:32:23.630Z,1.70
2023-05-09T19:34:52.799Z,1.63
2023-05-09T19:37:20.562Z,1.70
2023-05-09T19:39:48.289Z,1.43
2023-05-09T19:42:16.111Z,1.40
2023-05-09T19:44:43.836Z,1.63
2023-05-09T19:47:11.740Z,1.77
2023-05-09T19:49:40.328Z,1.80
2023-05-09T19:52:09.448Z,1.60
2023-05-09T19:54:37.244Z,1.63
2023-05-09T19:57:06.590Z,2.20
2023-05-09T19:59:34.354Z,1.97
2023-05-09T20:02:02.669Z,1.90
2023-05-09T20:04:35.633Z,1.60
2023-05-09T20:07:03.725Z,2.00
2023-05-09T20:09:33.224Z,2.20
2023-05-09T20:12:03.540Z,2.10
2023-05-09T20:14:31.938Z,2.00
2023-05-09T20:16:59.720Z,1.80
2023-05-09T20:19:27.836Z,2.00
2023-05-09T20:21:55.517Z,2.13
2023-05-09T20:24:23.403Z,2.17
2023-05-09T20:26:52.533Z,2.17
2023-05-09T20:29:20.290Z,2.00
2023-05-09T20:31:48.311Z,2.57
2023-05-09T20:34:18.051Z,1.90
2023-05-09T20:36:49.233Z,2.40
2023-05-09T20:39:17.768Z,2.27
2023-05-09T20:41:45.697Z,2.40
2023-05-09T20:44:15.647Z,2.50
2023-05-09T20:46:43.888Z,2.30
2023-05-09T20:49:11.873Z,2.43
2023-05-09T20:51:39.960Z,2.63
2023-05-09T20:54:07.778Z,2.33
2023-05-09T20:56:35.813Z,2.50
2023-05-09T20:59:04.561Z,2.47
2023-05-09T21:01:36.588Z,2.40
2023-05-09T21:04:05.806Z,2.67
2023-05-09T21:06:33.757Z,2.30
2023-05-09T21:09:01.507Z,2.30
2023-05-09T21:11:29.218Z,2.53
2023-05-09T21:13:56.891Z,2.40
2023-05-09T21:16:24.650Z,2.40
2023-05-09T21:18:53.964Z,2.40
2023-05-09T21:21:21.687Z,2.07
2023-05-09T21:23:49.891Z,2.60
2023-05-09T21:26:17.914Z,2.43
2023-05-09T21:28:45.688Z,2.27
2023-05-09T21:31:13.459Z,2.57
2023-05-09T21:33:41.173Z,2.20
2023-05-09T21:36:11.070Z,2.30
2023-05-09T21:38:38.848Z,2.50
2023-05-09T21:41:06.652Z,2.60
2023-05-09T21:43:34.501Z,2.60
2023-05-09T21:46:02.237Z,2.47
2023-05-09T21:48:30.107Z,2.20
2023-05-09T21:50:57.877Z,2.27
2023-05-09T21:53:26.982Z,2.97
2023-05-09T21:55:54.696Z,2.53
2023-05-09T21:58:22.412Z,2.47
2023-05-09T22:00:50.154Z,2.53
2023-05-09T22:03:17.955Z,2.50
2023-05-09T22:05:45.921Z,2.63
2023-05-09T22:08:13.860Z,2.40
2023-05-09T22:10:42.945Z,2.63
2023-05-09T22:13:10.681Z,2.80
2023-05-09T22:15:38.473Z,2.60
2023-05-09T22:18:06.402Z,2.30
2023-05-09T22:20:34.870Z,2.20
2023-05-09T22:23:02.706Z,2.23
2023-05-09T22:25:30.570Z,2.70
2023-05-09T22:27:59.616Z,2.60
2023-05-09T22:30:27.520Z,2.63
2023-05-09T22:32:55.335Z,2.70
2023-05-09T22:35:23.277Z,3.10
2023-05-09T22:37:50.985Z,2.50
2023-05-09T22:40:18.994Z,2.60
2023-05-09T22:42:46.709Z,2.77
2023-05-09T22:45:15.812Z,2.70
2023-05-09T22:47:43.554Z,3.07
2023-05-09T22:50:11.737Z,2.90
2023-05-09T22:52:39.677Z,2.90
2023-05-09T22:55:08.467Z,2.90
2023-05-09T22:57:36.895Z,2.83
2023-05-09T23:00:06.248Z,3.07
2023-05-09T23:02:35.542Z,2.93
2023-05-09T23:05:03.477Z,2.60
2023-05-09T23:07:31.328Z,2.90
2023-05-09T23:09:59.252Z,3.37
2023-05-09T23:12:27.142Z,3.13
2023-05-09T23:14:54.853Z,3.20
2023-05-09T23:17:23.034Z,3.37
2023-05-09T23:19:52.134Z,2.70
2023-05-09T23:22:19.874Z,3.10
2023-05-09T23:24:47.707Z,2.33
2023-05-09T23:27:15.505Z,2.70
2023-05-09T23:29:43.468Z,3.27
2023-05-09T23:32:11.214Z,2.87
2023-05-09T23:34:38.977Z,3.10
2023-05-09T23:37:08.732Z,3.00
2023-05-09T23:39:36.555Z,2.87
2023-05-09T23:42:04.886Z,2.90
2023-05-09T23:44:33.214Z,2.50
2023-05-09T23:47:01.904Z,2.77
2023-05-09T23:49:29.831Z,2.70
2023-05-09T23:51:57.864Z,2.87
2023-05-09T23:54:27.452Z,2.90
2023-05-09T23:56:56.361Z,3.00
2023-05-09T23:59:24.174Z,3.20
